sensor_id;sensor_type;location;lat;lon;timestamp;P1;durP1;ratioP1;P2;durP2;ratioP2
25870;SDS011;13689;48.590;7.752;2023-02-28T00:00:31;3.17;;;1.58;;
25870;SDS011;13689;48.590;7.752;2023-02-28T00:02:57;4.40;;;1.70;;
25870;SDS011;13689;48.590;7.752;2023-02-28T00:05:23;3.67;;;1.92;;
25870;SDS011;13689;48.590;7.752;2023-02-28T00:07:50;1.95;;;1.73;;
25870;SDS011;13689;48.590;7.752;2023-02-28T00:10:24;3.07;;;2.10;;
25870;SDS011;13689;48.590;7.752;2023-02-28T00:12:54;3.45;;;1.92;;
25870;SDS011;13689;48.590;7.752;2023-02-28T00:15:22;2.35;;;1.60;;
25870;SDS011;13689;48.590;7.752;2023-02-28T00:17:48;2.30;;;1.65;;
25870;SDS011;13689;48.590;7.752;2023-02-28T00:20:14;4.80;;;1.45;;
25870;SDS011;13689;48.590;7.752;2023-02-28T00:22:41;3.95;;;1.95;;
25870;SDS011;13689;48.590;7.752;2023-02-28T00:25:10;3.85;;;1.80;;
25870;SDS011;13689;48.590;7.752;2023-02-28T00:27:37;2.35;;;1.98;;
25870;SDS011;13689;48.590;7.752;2023-02-28T00:30:04;3.03;;;1.50;;
25870;SDS011;13689;48.590;7.752;2023-02-28T00:32:32;2.67;;;1.15;;
25870;SDS011;13689;48.590;7.752;2023-02-28T00:34:59;4.18;;;2.20;;
25870;SDS011;13689;48.590;7.752;2023-02-28T00:37:25;2.22;;;1.77;;
25870;SDS011;13689;48.590;7.752;2023-02-28T00:39:50;2.72;;;1.75;;
25870;SDS011;13689;48.590;7.752;2023-02-28T00:42:16;4.13;;;1.20;;
25870;SDS011;13689;48.590;7.752;2023-02-28T00:44:42;1.77;;;1.58;;
25870;SDS011;13689;48.590;7.752;2023-02-28T00:47:07;5.18;;;2.47;;
25870;SDS011;13689;48.590;7.752;2023-02-28T00:49:33;7.80;;;2.33;;
25870;SDS011;13689;48.590;7.752;2023-02-28T00:51:59;2.53;;;1.63;;
25870;SDS011;13689;48.590;7.752;2023-02-28T00:54:24;4.82;;;2.08;;
25870;SDS011;13689;48.590;7.752;2023-02-28T00:56:50;2.75;;;1.95;;
25870;SDS011;13689;48.590;7.752;2023-02-28T00:59:16;4.88;;;2.28;;
25870;SDS011;13689;48.590;7.752;2023-02-28T01:01:43;2.20;;;2.00;;
25870;SDS011;13689;48.590;7.752;2023-02-28T01:04:10;3.22;;;1.48;;
25870;SDS011;13689;48.590;7.752;2023-02-28T01:06:36;3.80;;;2.40;;
25870;SDS011;13689;48.590;7.752;2023-02-28T01:09:02;1.92;;;0.98;;
25870;SDS011;13689;48.590;7.752;2023-02-28T01:11:29;1.83;;;1.20;;
25870;SDS011;13689;48.590;7.752;2023-02-28T01:13:54;3.67;;;2.10;;
25870;SDS011;13689;48.590;7.752;2023-02-28T01:16:20;4.40;;;2.28;;
25870;SDS011;13689;48.590;7.752;2023-02-28T01:18:46;5.10;;;2.28;;
25870;SDS011;13689;48.590;7.752;2023-02-28T01:21:13;1.35;;;1.25;;
25870;SDS011;13689;48.590;7.752;2023-02-28T01:23:40;2.60;;;1.88;;
25870;SDS011;13689;48.590;7.752;2023-02-28T01:26:08;7.05;;;2.00;;
25870;SDS011;13689;48.590;7.752;2023-02-28T01:28:38;5.60;;;2.22;;
25870;SDS011;13689;48.590;7.752;2023-02-28T01:31:03;1.38;;;1.15;;
25870;SDS011;13689;48.590;7.752;2023-02-28T01:33:30;2.58;;;1.70;;
25870;SDS011;13689;48.590;7.752;2023-02-28T01:35:59;1.77;;;1.27;;
25870;SDS011;13689;48.590;7.752;2023-02-28T01:38:27;1.95;;;1.77;;
25870;SDS011;13689;48.590;7.752;2023-02-28T01:40:53;2.10;;;1.70;;
25870;SDS011;13689;48.590;7.752;2023-02-28T01:43:29;1.90;;;1.80;;
25870;SDS011;13689;48.590;7.752;2023-02-28T01:45:57;2.65;;;2.10;;
25870;SDS011;13689;48.590;7.752;2023-02-28T01:48:31;1.75;;;1.50;;
25870;SDS011;13689;48.590;7.752;2023-02-28T01:51:01;4.22;;;2.17;;
25870;SDS011;13689;48.590;7.752;2023-02-28T01:53:32;2.38;;;1.48;;
25870;SDS011;13689;48.590;7.752;2023-02-28T01:56:03;3.17;;;1.92;;
25870;SDS011;13689;48.590;7.752;2023-02-28T01:58:31;2.30;;;1.95;;
25870;SDS011;13689;48.590;7.752;2023-02-28T02:00:57;2.97;;;1.83;;
25870;SDS011;13689;48.590;7.752;2023-02-28T02:03:22;6.43;;;2.60;;
25870;SDS011;13689;48.590;7.752;2023-02-28T02:05:48;1.40;;;1.30;;
25870;SDS011;13689;48.590;7.752;2023-02-28T02:08:32;4.35;;;2.45;;
25870;SDS011;13689;48.590;7.752;2023-02-28T02:10:59;3.55;;;1.95;;
25870;SDS011;13689;48.590;7.752;2023-02-28T02:22:12;2.85;;;2.17;;
25870;SDS011;13689;48.590;7.752;2023-02-28T02:41:39;3.00;;;2.10;;
25870;SDS011;13689;48.590;7.752;2023-02-28T02:44:13;4.10;;;2.28;;
25870;SDS011;13689;48.590;7.752;2023-02-28T02:46:48;2.67;;;1.95;;
25870;SDS011;13689;48.590;7.752;2023-02-28T02:49:19;2.97;;;1.95;;
25870;SDS011;13689;48.590;7.752;2023-02-28T02:51:53;1.20;;;1.10;;
25870;SDS011;13689;48.590;7.752;2023-02-28T02:54:27;4.93;;;1.77;;
25870;SDS011;13689;48.590;7.752;2023-02-28T02:56:56;2.53;;;1.90;;
25870;SDS011;13689;48.590;7.752;2023-02-28T02:59:26;3.88;;;2.33;;
25870;SDS011;13689;48.590;7.752;2023-02-28T03:01:56;6.90;;;2.67;;
25870;SDS011;13689;48.590;7.752;2023-02-28T03:04:28;4.35;;;2.80;;
25870;SDS011;13689;48.590;7.752;2023-02-28T03:06:58;4.30;;;2.15;;
25870;SDS011;13689;48.590;7.752;2023-02-28T03:27:26;5.32;;;2.70;;
25870;SDS011;13689;48.590;7.752;2023-02-28T03:30:02;5.25;;;3.08;;
25870;SDS011;13689;48.590;7.752;2023-02-28T03:32:36;4.45;;;2.17;;
25870;SDS011;13689;48.590;7.752;2023-02-28T03:35:09;2.67;;;2.08;;
25870;SDS011;13689;48.590;7.752;2023-02-28T03:37:39;1.92;;;1.63;;
25870;SDS011;13689;48.590;7.752;2023-02-28T03:40:08;3.83;;;2.47;;
25870;SDS011;13689;48.590;7.752;2023-02-28T03:42:39;2.35;;;1.48;;
25870;SDS011;13689;48.590;7.752;2023-02-28T03:45:13;2.67;;;2.17;;
25870;SDS011;13689;48.590;7.752;2023-02-28T03:47:51;5.63;;;2.42;;
25870;SDS011;13689;48.590;7.752;2023-02-28T03:50:38;2.22;;;1.42;;
25870;SDS011;13689;48.590;7.752;2023-02-28T03:53:10;2.72;;;2.13;;
25870;SDS011;13689;48.590;7.752;2023-02-28T03:55:48;2.33;;;1.90;;
25870;SDS011;13689;48.590;7.752;2023-02-28T03:58:29;4.53;;;3.03;;
25870;SDS011;13689;48.590;7.752;2023-02-28T04:01:19;2.95;;;2.13;;
25870;SDS011;13689;48.590;7.752;2023-02-28T04:04:11;4.57;;;2.85;;
25870;SDS011;13689;48.590;7.752;2023-02-28T04:06:38;2.50;;;1.97;;
25870;SDS011;13689;48.590;7.752;2023-02-28T04:09:05;8.23;;;2.67;;
25870;SDS011;13689;48.590;7.752;2023-02-28T04:11:38;4.07;;;2.17;;
25870;SDS011;13689;48.590;7.752;2023-02-28T04:14:06;3.45;;;2.53;;
25870;SDS011;13689;48.590;7.752;2023-02-28T04:16:33;4.63;;;2.55;;
25870;SDS011;13689;48.590;7.752;2023-02-28T04:19:01;4.32;;;2.65;;
25870;SDS011;13689;48.590;7.752;2023-02-28T04:21:32;4.43;;;2.97;;
25870;SDS011;13689;48.590;7.752;2023-02-28T04:24:04;6.72;;;2.78;;
25870;SDS011;13689;48.590;7.752;2023-02-28T04:26:31;5.97;;;3.10;;
25870;SDS011;13689;48.590;7.752;2023-02-28T04:31:24;1.90;;;1.42;;
25870;SDS011;13689;48.590;7.752;2023-02-28T04:33:50;3.47;;;2.33;;
25870;SDS011;13689;48.590;7.752;2023-02-28T04:36:16;7.60;;;3.28;;
25870;SDS011;13689;48.590;7.752;2023-02-28T04:38:45;2.92;;;1.58;;
25870;SDS011;13689;48.590;7.752;2023-02-28T04:41:13;3.72;;;2.38;;
25870;SDS011;13689;48.590;7.752;2023-02-28T04:43:39;3.47;;;2.38;;
25870;SDS011;13689;48.590;7.752;2023-02-28T04:46:05;7.57;;;2.95;;
25870;SDS011;13689;48.590;7.752;2023-02-28T04:48:32;8.77;;;3.13;;
25870;SDS011;13689;48.590;7.752;2023-02-28T04:53:26;2.85;;;1.80;;
25870;SDS011;13689;48.590;7.752;2023-02-28T04:55:53;3.47;;;2.37;;
25870;SDS011;13689;48.590;7.752;2023-02-28T04:58:19;3.30;;;2.38;;
25870;SDS011;13689;48.590;7.752;2023-02-28T05:00:44;3.33;;;2.40;;
25870;SDS011;13689;48.590;7.752;2023-02-28T05:03:10;5.78;;;3.53;;
25870;SDS011;13689;48.590;7.752;2023-02-28T05:05:35;4.35;;;3.10;;
25870;SDS011;13689;48.590;7.752;2023-02-28T05:08:01;5.22;;;3.30;;
25870;SDS011;13689;48.590;7.752;2023-02-28T05:10:27;5.20;;;2.75;;
25870;SDS011;13689;48.590;7.752;2023-02-28T05:12:52;6.20;;;3.08;;
25870;SDS011;13689;48.590;7.752;2023-02-28T05:15:18;2.80;;;2.40;;
25870;SDS011;13689;48.590;7.752;2023-02-28T05:17:43;5.30;;;3.38;;
25870;SDS011;13689;48.590;7.752;2023-02-28T05:20:09;8.20;;;4.43;;
25870;SDS011;13689;48.590;7.752;2023-02-28T05:22:36;1.48;;;1.25;;
25870;SDS011;13689;48.590;7.752;2023-02-28T05:25:03;4.25;;;2.70;;
25870;SDS011;13689;48.590;7.752;2023-02-28T05:27:29;8.05;;;3.63;;
25870;SDS011;13689;48.590;7.752;2023-02-28T05:29:55;7.00;;;3.13;;
25870;SDS011;13689;48.590;7.752;2023-02-28T05:32:21;5.00;;;3.25;;
25870;SDS011;13689;48.590;7.752;2023-02-28T05:34:47;4.15;;;2.45;;
25870;SDS011;13689;48.590;7.752;2023-02-28T05:37:13;4.32;;;2.97;;
25870;SDS011;13689;48.590;7.752;2023-02-28T05:39:40;4.70;;;2.53;;
25870;SDS011;13689;48.590;7.752;2023-02-28T05:42:09;6.68;;;2.63;;
25870;SDS011;13689;48.590;7.752;2023-02-28T05:44:37;6.13;;;3.25;;
25870;SDS011;13689;48.590;7.752;2023-02-28T05:47:03;6.70;;;3.78;;
25870;SDS011;13689;48.590;7.752;2023-02-28T05:49:28;6.20;;;3.17;;
25870;SDS011;13689;48.590;7.752;2023-02-28T05:51:54;4.50;;;3.40;;
25870;SDS011;13689;48.590;7.752;2023-02-28T05:54:20;5.43;;;3.15;;
25870;SDS011;13689;48.590;7.752;2023-02-28T05:56:45;8.23;;;3.38;;
25870;SDS011;13689;48.590;7.752;2023-02-28T05:59:13;6.72;;;3.22;;
25870;SDS011;13689;48.590;7.752;2023-02-28T06:01:43;8.35;;;3.78;;
25870;SDS011;13689;48.590;7.752;2023-02-28T06:04:13;4.57;;;2.70;;
25870;SDS011;13689;48.590;7.752;2023-02-28T06:06:43;3.30;;;2.47;;
25870;SDS011;13689;48.590;7.752;2023-02-28T06:09:10;6.55;;;3.92;;
25870;SDS011;13689;48.590;7.752;2023-02-28T06:11:35;6.05;;;3.85;;
25870;SDS011;13689;48.590;7.752;2023-02-28T06:14:01;7.15;;;4.20;;
25870;SDS011;13689;48.590;7.752;2023-02-28T06:16:28;7.75;;;3.72;;
25870;SDS011;13689;48.590;7.752;2023-02-28T06:18:56;1.10;;;1.10;;
25870;SDS011;13689;48.590;7.752;2023-02-28T06:21:23;9.07;;;3.83;;
25870;SDS011;13689;48.590;7.752;2023-02-28T06:23:52;10.68;;;4.40;;
25870;SDS011;13689;48.590;7.752;2023-02-28T06:26:18;8.13;;;3.83;;
25870;SDS011;13689;48.590;7.752;2023-02-28T06:28:44;8.50;;;3.58;;
25870;SDS011;13689;48.590;7.752;2023-02-28T06:31:11;7.00;;;3.88;;
25870;SDS011;13689;48.590;7.752;2023-02-28T06:33:39;5.72;;;3.20;;
25870;SDS011;13689;48.590;7.752;2023-02-28T06:36:07;1.70;;;1.40;;
25870;SDS011;13689;48.590;7.752;2023-02-28T06:38:34;5.28;;;3.72;;
25870;SDS011;13689;48.590;7.752;2023-02-28T06:41:01;2.15;;;1.65;;
25870;SDS011;13689;48.590;7.752;2023-02-28T06:43:28;6.90;;;3.60;;
25870;SDS011;13689;48.590;7.752;2023-02-28T06:45:55;10.70;;;4.80;;
25870;SDS011;13689;48.590;7.752;2023-02-28T06:48:23;7.07;;;3.00;;
25870;SDS011;13689;48.590;7.752;2023-02-28T06:50:49;6.10;;;3.88;;
25870;SDS011;13689;48.590;7.752;2023-02-28T06:53:15;9.07;;;3.72;;
25870;SDS011;13689;48.590;7.752;2023-02-28T06:55:40;2.30;;;1.40;;
25870;SDS011;13689;48.590;7.752;2023-02-28T06:58:06;7.50;;;3.83;;
25870;SDS011;13689;48.590;7.752;2023-02-28T07:00:45;6.50;;;3.40;;
25870;SDS011;13689;48.590;7.752;2023-02-28T07:03:11;5.30;;;3.35;;
25870;SDS011;13689;48.590;7.752;2023-02-28T07:05:38;9.07;;;4.18;;
25870;SDS011;13689;48.590;7.752;2023-02-28T07:08:05;6.25;;;3.63;;
25870;SDS011;13689;48.590;7.752;2023-02-28T07:10:31;8.43;;;3.58;;
25870;SDS011;13689;48.590;7.752;2023-02-28T07:12:58;8.15;;;3.47;;
25870;SDS011;13689;48.590;7.752;2023-02-28T07:15:24;2.65;;;1.55;;
25870;SDS011;13689;48.590;7.752;2023-02-28T07:17:49;3.47;;;2.50;;
25870;SDS011;13689;48.590;7.752;2023-02-28T07:20:15;7.97;;;4.60;;
25870;SDS011;13689;48.590;7.752;2023-02-28T07:22:41;8.63;;;4.90;;
25870;SDS011;13689;48.590;7.752;2023-02-28T07:25:07;5.70;;;3.00;;
25870;SDS011;13689;48.590;7.752;2023-02-28T07:27:33;7.65;;;4.15;;
25870;SDS011;13689;48.590;7.752;2023-02-28T07:29:59;2.85;;;2.33;;
25870;SDS011;13689;48.590;7.752;2023-02-28T07:32:26;10.90;;;4.88;;
25870;SDS011;13689;48.590;7.752;2023-02-28T07:34:52;7.25;;;3.40;;
25870;SDS011;13689;48.590;7.752;2023-02-28T07:37:18;7.38;;;4.28;;
25870;SDS011;13689;48.590;7.752;2023-02-28T07:39:44;5.55;;;3.55;;
25870;SDS011;13689;48.590;7.752;2023-02-28T07:42:11;9.90;;;4.63;;
25870;SDS011;13689;48.590;7.752;2023-02-28T07:44:40;3.03;;;2.17;;
25870;SDS011;13689;48.590;7.752;2023-02-28T07:47:07;3.30;;;2.08;;
25870;SDS011;13689;48.590;7.752;2023-02-28T07:49:34;4.85;;;3.10;;
25870;SDS011;13689;48.590;7.752;2023-02-28T07:52:03;12.27;;;4.90;;
25870;SDS011;13689;48.590;7.752;2023-02-28T07:54:32;6.50;;;4.22;;
25870;SDS011;13689;48.590;7.752;2023-02-28T07:56:58;10.35;;;3.97;;
25870;SDS011;13689;48.590;7.752;2023-02-28T07:59:24;7.13;;;4.38;;
25870;SDS011;13689;48.590;7.752;2023-02-28T08:01:50;4.35;;;2.35;;
25870;SDS011;13689;48.590;7.752;2023-02-28T08:04:16;9.18;;;4.45;;
25870;SDS011;13689;48.590;7.752;2023-02-28T08:06:42;8.32;;;4.50;;
25870;SDS011;13689;48.590;7.752;2023-02-28T08:09:08;8.30;;;4.45;;
25870;SDS011;13689;48.590;7.752;2023-02-28T08:11:34;8.13;;;4.25;;
25870;SDS011;13689;48.590;7.752;2023-02-28T08:13:59;4.70;;;3.05;;
25870;SDS011;13689;48.590;7.752;2023-02-28T08:16:25;6.72;;;3.88;;
25870;SDS011;13689;48.590;7.752;2023-02-28T08:18:51;4.82;;;2.72;;
25870;SDS011;13689;48.590;7.752;2023-02-28T08:21:18;2.63;;;1.40;;
25870;SDS011;13689;48.590;7.752;2023-02-28T08:23:46;4.93;;;3.00;;
25870;SDS011;13689;48.590;7.752;2023-02-28T08:28:38;8.25;;;4.40;;
25870;SDS011;13689;48.590;7.752;2023-02-28T08:31:08;6.55;;;4.07;;
25870;SDS011;13689;48.590;7.752;2023-02-28T08:33:35;7.85;;;3.80;;
25870;SDS011;13689;48.590;7.752;2023-02-28T08:36:01;9.32;;;4.25;;
25870;SDS011;13689;48.590;7.752;2023-02-28T08:38:26;6.28;;;3.72;;
25870;SDS011;13689;48.590;7.752;2023-02-28T08:40:58;3.20;;;1.95;;
25870;SDS011;13689;48.590;7.752;2023-02-28T08:43:25;7.97;;;4.50;;
25870;SDS011;13689;48.590;7.752;2023-02-28T08:45:52;7.57;;;4.07;;
25870;SDS011;13689;48.590;7.752;2023-02-28T08:48:18;11.55;;;4.75;;
25870;SDS011;13689;48.590;7.752;2023-02-28T08:50:43;5.32;;;4.05;;
25870;SDS011;13689;48.590;7.752;2023-02-28T08:53:09;11.05;;;4.32;;
25870;SDS011;13689;48.590;7.752;2023-02-28T08:55:35;7.90;;;4.40;;
25870;SDS011;13689;48.590;7.752;2023-02-28T08:58:00;11.25;;;4.80;;
25870;SDS011;13689;48.590;7.752;2023-02-28T09:00:26;8.70;;;4.55;;
25870;SDS011;13689;48.590;7.752;2023-02-28T09:02:52;8.88;;;4.43;;
25870;SDS011;13689;48.590;7.752;2023-02-28T09:05:18;7.82;;;3.60;;
25870;SDS011;13689;48.590;7.752;2023-02-28T09:07:43;7.22;;;2.72;;
25870;SDS011;13689;48.590;7.752;2023-02-28T09:10:10;12.63;;;4.93;;
25870;SDS011;13689;48.590;7.752;2023-02-28T09:12:36;10.18;;;4.82;;
25870;SDS011;13689;48.590;7.752;2023-02-28T09:15:02;12.75;;;5.30;;
25870;SDS011;13689;48.590;7.752;2023-02-28T09:17:28;10.05;;;4.75;;
25870;SDS011;13689;48.590;7.752;2023-02-28T09:19:54;4.50;;;3.25;;
25870;SDS011;13689;48.590;7.752;2023-02-28T09:22:20;6.97;;;3.20;;
25870;SDS011;13689;48.590;7.752;2023-02-28T09:24:46;11.55;;;5.45;;
25870;SDS011;13689;48.590;7.752;2023-02-28T09:27:11;8.10;;;4.60;;
25870;SDS011;13689;48.590;7.752;2023-02-28T09:29:37;9.65;;;4.82;;
25870;SDS011;13689;48.590;7.752;2023-02-28T09:32:03;11.30;;;4.38;;
25870;SDS011;13689;48.590;7.752;2023-02-28T09:34:30;8.27;;;3.60;;
25870;SDS011;13689;48.590;7.752;2023-02-28T09:36:56;9.13;;;5.25;;
25870;SDS011;13689;48.590;7.752;2023-02-28T09:39:22;9.73;;;5.05;;
25870;SDS011;13689;48.590;7.752;2023-02-28T09:41:50;7.28;;;2.42;;
25870;SDS011;13689;48.590;7.752;2023-02-28T09:44:23;11.15;;;4.55;;
25870;SDS011;13689;48.590;7.752;2023-02-28T09:47:14;11.15;;;4.85;;
25870;SDS011;13689;48.590;7.752;2023-02-28T09:49:47;8.57;;;3.97;;
25870;SDS011;13689;48.590;7.752;2023-02-28T09:52:14;13.90;;;4.03;;
25870;SDS011;13689;48.590;7.752;2023-02-28T09:54:44;10.85;;;4.80;;
25870;SDS011;13689;48.590;7.752;2023-02-28T09:57:15;8.73;;;4.45;;
25870;SDS011;13689;48.590;7.752;2023-02-28T10:05:35;10.80;;;5.47;;
25870;SDS011;13689;48.590;7.752;2023-02-28T10:08:13;10.02;;;5.45;;
25870;SDS011;13689;48.590;7.752;2023-02-28T10:10:48;3.90;;;1.88;;
25870;SDS011;13689;48.590;7.752;2023-02-28T10:16:16;6.85;;;4.40;;
25870;SDS011;13689;48.590;7.752;2023-02-28T10:18:50;9.15;;;4.13;;
25870;SDS011;13689;48.590;7.752;2023-02-28T10:24:05;10.95;;;5.90;;
25870;SDS011;13689;48.590;7.752;2023-02-28T10:26:43;11.32;;;5.90;;
25870;SDS011;13689;48.590;7.752;2023-02-28T10:29:10;5.93;;;3.72;;
25870;SDS011;13689;48.590;7.752;2023-02-28T10:31:36;12.27;;;5.75;;
25870;SDS011;13689;48.590;7.752;2023-02-28T10:34:04;8.40;;;3.70;;
25870;SDS011;13689;48.590;7.752;2023-02-28T10:36:31;15.40;;;5.55;;
25870;SDS011;13689;48.590;7.752;2023-02-28T10:38:57;11.48;;;5.18;;
25870;SDS011;13689;48.590;7.752;2023-02-28T10:43:53;13.05;;;5.70;;
25870;SDS011;13689;48.590;7.752;2023-02-28T10:46:55;12.25;;;5.07;;
25870;SDS011;13689;48.590;7.752;2023-02-28T10:49:27;10.20;;;5.60;;
25870;SDS011;13689;48.590;7.752;2023-02-28T10:51:55;5.45;;;2.75;;
25870;SDS011;13689;48.590;7.752;2023-02-28T10:54:24;5.03;;;2.50;;
25870;SDS011;13689;48.590;7.752;2023-02-28T10:59:41;7.82;;;4.70;;
25870;SDS011;13689;48.590;7.752;2023-02-28T11:02:49;8.80;;;4.75;;
25870;SDS011;13689;48.590;7.752;2023-02-28T11:04:58;17.60;;;4.68;;
25870;SDS011;13689;48.590;7.752;2023-02-28T11:07:23;9.27;;;4.85;;
25870;SDS011;13689;48.590;7.752;2023-02-28T11:09:51;16.00;;;5.30;;
25870;SDS011;13689;48.590;7.752;2023-02-28T11:12:20;9.63;;;4.03;;
25870;SDS011;13689;48.590;7.752;2023-02-28T11:14:47;8.70;;;3.88;;
25870;SDS011;13689;48.590;7.752;2023-02-28T11:17:24;7.18;;;4.72;;
25870;SDS011;13689;48.590;7.752;2023-02-28T11:19:57;22.70;;;5.82;;
25870;SDS011;13689;48.590;7.752;2023-02-28T11:22:28;9.85;;;5.00;;
25870;SDS011;13689;48.590;7.752;2023-02-28T11:24:59;9.13;;;5.45;;
25870;SDS011;13689;48.590;7.752;2023-02-28T11:29:57;11.05;;;4.30;;
25870;SDS011;13689;48.590;7.752;2023-02-28T11:32:24;8.07;;;4.35;;
25870;SDS011;13689;48.590;7.752;2023-02-28T11:37:34;10.82;;;5.80;;
25870;SDS011;13689;48.590;7.752;2023-02-28T11:40:00;7.60;;;4.03;;
25870;SDS011;13689;48.590;7.752;2023-02-28T11:51:24;11.30;;;5.20;;
25870;SDS011;13689;48.590;7.752;2023-02-28T11:53:50;12.35;;;6.40;;
25870;SDS011;13689;48.590;7.752;2023-02-28T12:12:21;10.05;;;5.00;;
25870;SDS011;13689;48.590;7.752;2023-02-28T12:20:34;9.85;;;4.05;;
25870;SDS011;13689;48.590;7.752;2023-02-28T12:28:12;12.73;;;6.38;;
25870;SDS011;13689;48.590;7.752;2023-02-28T12:30:46;14.18;;;6.63;;
25870;SDS011;13689;48.590;7.752;2023-02-28T12:33:18;15.90;;;6.97;;
25870;SDS011;13689;48.590;7.752;2023-02-28T12:35:49;13.27;;;6.78;;
25870;SDS011;13689;48.590;7.752;2023-02-28T12:38:44;11.43;;;6.32;;
25870;SDS011;13689;48.590;7.752;2023-02-28T12:43:45;13.43;;;6.78;;
25870;SDS011;13689;48.590;7.752;2023-02-28T12:46:17;15.48;;;6.55;;
25870;SDS011;13689;48.590;7.752;2023-02-28T12:48:48;10.90;;;6.00;;
25870;SDS011;13689;48.590;7.752;2023-02-28T12:51:20;11.23;;;6.50;;
25870;SDS011;13689;48.590;7.752;2023-02-28T12:53:52;11.07;;;5.55;;
25870;SDS011;13689;48.590;7.752;2023-02-28T12:59:18;10.15;;;5.82;;
25870;SDS011;13689;48.590;7.752;2023-02-28T13:07:33;9.48;;;4.70;;
25870;SDS011;13689;48.590;7.752;2023-02-28T13:10:21;11.93;;;6.45;;
25870;SDS011;13689;48.590;7.752;2023-02-28T13:12:48;13.00;;;5.90;;
25870;SDS011;13689;48.590;7.752;2023-02-28T13:15:21;10.93;;;6.68;;
25870;SDS011;13689;48.590;7.752;2023-02-28T13:17:51;9.15;;;5.40;;
25870;SDS011;13689;48.590;7.752;2023-02-28T13:20:19;13.68;;;6.03;;
25870;SDS011;13689;48.590;7.752;2023-02-28T13:22:51;8.93;;;4.78;;
25870;SDS011;13689;48.590;7.752;2023-02-28T13:27:47;16.42;;;6.75;;
25870;SDS011;13689;48.590;7.752;2023-02-28T13:33:22;13.25;;;6.70;;
25870;SDS011;13689;48.590;7.752;2023-02-28T13:44:04;8.98;;;5.20;;
25870;SDS011;13689;48.590;7.752;2023-02-28T13:49:33;19.38;;;6.15;;
25870;SDS011;13689;48.590;7.752;2023-02-28T13:57:33;12.10;;;6.60;;
25870;SDS011;13689;48.590;7.752;2023-02-28T14:05:36;13.55;;;6.47;;
25870;SDS011;13689;48.590;7.752;2023-02-28T14:08:13;19.20;;;6.37;;
25870;SDS011;13689;48.590;7.752;2023-02-28T14:10:46;8.70;;;4.82;;
25870;SDS011;13689;48.590;7.752;2023-02-28T14:16:02;12.63;;;6.30;;
25870;SDS011;13689;48.590;7.752;2023-02-28T14:18:33;10.32;;;5.55;;
25870;SDS011;13689;48.590;7.752;2023-02-28T14:32:17;3.65;;;2.55;;
25870;SDS011;13689;48.590;7.752;2023-02-28T14:34:54;10.18;;;6.13;;
25870;SDS011;13689;48.590;7.752;2023-02-28T14:37:39;12.48;;;6.50;;
25870;SDS011;13689;48.590;7.752;2023-02-28T14:42:39;9.80;;;5.03;;
25870;SDS011;13689;48.590;7.752;2023-02-28T14:45:21;12.10;;;5.90;;
25870;SDS011;13689;48.590;7.752;2023-02-28T14:47:47;12.50;;;6.32;;
25870;SDS011;13689;48.590;7.752;2023-02-28T14:50:22;17.80;;;7.85;;
25870;SDS011;13689;48.590;7.752;2023-02-28T14:52:54;14.95;;;7.78;;
25870;SDS011;13689;48.590;7.752;2023-02-28T14:55:23;16.40;;;7.55;;
25870;SDS011;13689;48.590;7.752;2023-02-28T14:58:00;18.02;;;7.47;;
25870;SDS011;13689;48.590;7.752;2023-02-28T15:00:30;11.50;;;5.25;;
25870;SDS011;13689;48.590;7.752;2023-02-28T15:07:59;17.27;;;6.53;;
25870;SDS011;13689;48.590;7.752;2023-02-28T15:10:27;10.05;;;4.38;;
25870;SDS011;13689;48.590;7.752;2023-02-28T15:12:54;14.20;;;7.00;;
25870;SDS011;13689;48.590;7.752;2023-02-28T15:15:21;9.70;;;5.38;;
25870;SDS011;13689;48.590;7.752;2023-02-28T15:17:50;11.40;;;5.90;;
25870;SDS011;13689;48.590;7.752;2023-02-28T15:20:19;18.65;;;7.70;;
25870;SDS011;13689;48.590;7.752;2023-02-28T15:22:46;11.52;;;6.30;;
25870;SDS011;13689;48.590;7.752;2023-02-28T15:25:15;8.98;;;5.03;;
25870;SDS011;13689;48.590;7.752;2023-02-28T15:27:47;8.30;;;4.65;;
25870;SDS011;13689;48.590;7.752;2023-02-28T15:30:20;11.65;;;6.40;;
25870;SDS011;13689;48.590;7.752;2023-02-28T15:33:06;14.05;;;7.20;;
25870;SDS011;13689;48.590;7.752;2023-02-28T15:35:51;9.80;;;6.35;;
25870;SDS011;13689;48.590;7.752;2023-02-28T15:38:28;12.05;;;6.20;;
25870;SDS011;13689;48.590;7.752;2023-02-28T15:40:55;9.77;;;5.47;;
25870;SDS011;13689;48.590;7.752;2023-02-28T15:43:25;9.48;;;5.68;;
25870;SDS011;13689;48.590;7.752;2023-02-28T15:48:28;21.33;;;7.32;;
25870;SDS011;13689;48.590;7.752;2023-02-28T15:50:57;13.02;;;4.85;;
25870;SDS011;13689;48.590;7.752;2023-02-28T15:53:51;17.02;;;7.10;;
25870;SDS011;13689;48.590;7.752;2023-02-28T15:59:03;14.15;;;7.22;;
25870;SDS011;13689;48.590;7.752;2023-02-28T16:01:37;10.63;;;5.32;;
25870;SDS011;13689;48.590;7.752;2023-02-28T16:04:17;15.15;;;7.07;;
25870;SDS011;13689;48.590;7.752;2023-02-28T16:06:45;10.80;;;5.78;;
25870;SDS011;13689;48.590;7.752;2023-02-28T16:09:30;10.18;;;5.57;;
25870;SDS011;13689;48.590;7.752;2023-02-28T16:11:58;11.93;;;5.20;;
25870;SDS011;13689;48.590;7.752;2023-02-28T16:14:26;13.88;;;6.47;;
25870;SDS011;13689;48.590;7.752;2023-02-28T16:16:56;14.23;;;7.55;;
25870;SDS011;13689;48.590;7.752;2023-02-28T16:19:27;9.65;;;4.32;;
25870;SDS011;13689;48.590;7.752;2023-02-28T16:21:53;14.55;;;7.38;;
25870;SDS011;13689;48.590;7.752;2023-02-28T16:24:18;12.02;;;7.20;;
25870;SDS011;13689;48.590;7.752;2023-02-28T16:26:45;8.68;;;5.15;;
25870;SDS011;13689;48.590;7.752;2023-02-28T16:29:29;15.05;;;7.47;;
25870;SDS011;13689;48.590;7.752;2023-02-28T16:31:58;11.82;;;7.25;;
25870;SDS011;13689;48.590;7.752;2023-02-28T16:34:26;13.13;;;6.40;;
25870;SDS011;13689;48.590;7.752;2023-02-28T16:36:52;16.95;;;7.45;;
25870;SDS011;13689;48.590;7.752;2023-02-28T16:39:18;16.50;;;7.50;;
25870;SDS011;13689;48.590;7.752;2023-02-28T16:41:45;17.85;;;8.65;;
25870;SDS011;13689;48.590;7.752;2023-02-28T16:44:23;8.70;;;5.43;;
25870;SDS011;13689;48.590;7.752;2023-02-28T16:47:08;10.27;;;6.80;;
25870;SDS011;13689;48.590;7.752;2023-02-28T16:49:37;14.23;;;8.38;;
25870;SDS011;13689;48.590;7.752;2023-02-28T16:52:02;10.60;;;5.90;;
25870;SDS011;13689;48.590;7.752;2023-02-28T16:54:28;14.15;;;7.88;;
25870;SDS011;13689;48.590;7.752;2023-02-28T16:56:54;14.30;;;7.70;;
25870;SDS011;13689;48.590;7.752;2023-02-28T16:59:21;9.50;;;5.05;;
25870;SDS011;13689;48.590;7.752;2023-02-28T17:01:49;15.20;;;7.13;;
25870;SDS011;13689;48.590;7.752;2023-02-28T17:04:15;13.38;;;8.13;;
25870;SDS011;13689;48.590;7.752;2023-02-28T17:06:41;14.07;;;8.02;;
25870;SDS011;13689;48.590;7.752;2023-02-28T17:09:17;16.85;;;6.72;;
25870;SDS011;13689;48.590;7.752;2023-02-28T17:11:45;9.02;;;5.60;;
25870;SDS011;13689;48.590;7.752;2023-02-28T17:14:11;13.63;;;7.05;;
25870;SDS011;13689;48.590;7.752;2023-02-28T17:16:37;18.23;;;9.07;;
25870;SDS011;13689;48.590;7.752;2023-02-28T17:19:09;9.65;;;4.93;;
25870;SDS011;13689;48.590;7.752;2023-02-28T17:21:43;13.77;;;7.82;;
25870;SDS011;13689;48.590;7.752;2023-02-28T17:24:09;14.30;;;8.07;;
25870;SDS011;13689;48.590;7.752;2023-02-28T17:31:50;17.25;;;7.10;;
25870;SDS011;13689;48.590;7.752;2023-02-28T17:34:16;13.52;;;7.15;;
25870;SDS011;13689;48.590;7.752;2023-02-28T17:36:45;8.60;;;4.15;;
25870;SDS011;13689;48.590;7.752;2023-02-28T17:39:12;12.07;;;6.40;;
25870;SDS011;13689;48.590;7.752;2023-02-28T17:41:55;16.48;;;4.78;;
25870;SDS011;13689;48.590;7.752;2023-02-28T17:44:22;17.20;;;8.23;;
25870;SDS011;13689;48.590;7.752;2023-02-28T17:47:00;13.27;;;7.25;;
25870;SDS011;13689;48.590;7.752;2023-02-28T17:49:47;16.83;;;7.68;;
25870;SDS011;13689;48.590;7.752;2023-02-28T17:52:13;15.85;;;7.65;;
25870;SDS011;13689;48.590;7.752;2023-02-28T17:54:39;17.70;;;9.25;;